Time;durP1;ratioP1;P1;durP2;ratioP2;P2;SDS_P1;SDS_P2;PMS_P1;PMS_P2;Temp;Humidity;BMP_temperature;BMP_pressure;BME280_temperature;BME280_humidity;BME280_pressure;Samples;Min_cycle;Max_cycle;Signal;HPM_P1;HPM_P2
2021/05/05 00:02:25;;;;;;;2.17;0.70;;;7.50;41.60;;;;;;5078829;28;20044;-66
2021/05/05 00:05:13;;;;;;;1.50;1.05;;;7.50;40.90;;;;;;5084466;28;20514;-66
2021/05/05 00:08:01;;;;;;;1.90;0.90;;;7.50;42.10;;;;;;5080809;28;20672;-65
2021/05/05 00:10:49;;;;;;;2.22;0.70;;;7.40;38.10;;;;;;5084204;28;20036;-66
2021/05/05 00:13:38;;;;;;;2.55;0.98;;;7.50;42.40;;;;;;5078684;28;20385;-65
2021/05/05 00:16:25;;;;;;;2.10;0.80;;;7.50;41.70;;;;;;5084732;28;20484;-66
2021/05/05 00:19:14;;;;;;;6.38;2.25;;;7.40;40.00;;;;;;5083600;28;20051;-66
2021/05/05 00:22:02;;;;;;;9.05;1.45;;;7.40;41.20;;;;;;5081554;28;20044;-66
2021/05/05 00:24:49;;;;;;;2.58;0.93;;;7.50;41.60;;;;;;5080955;28;20127;-66
2021/05/05 00:27:37;;;;;;;2.30;1.15;;;7.40;41.20;;;;;;5081064;28;20044;-65
2021/05/05 00:30:24;;;;;;;1.88;0.98;;;7.50;42.20;;;;;;5081561;28;20056;-66
2021/05/05 00:33:11;;;;;;;2.72;0.90;;;7.50;42.10;;;;;;5078201;28;20036;-67
2021/05/05 00:36:00;;;;;;;2.35;0.90;;;7.50;42.70;;;;;;5083352;28;20089;-66
2021/05/05 00:38:47;;;;;;;1.77;0.95;;;7.50;42.40;;;;;;5081198;28;20415;-66
2021/05/05 00:41:34;;;;;;;3.10;0.70;;;7.50;44.10;;;;;;5083999;28;20413;-67
2021/05/05 00:44:23;;;;;;;3.92;0.98;;;7.40;42.50;;;;;;5081727;28;20433;-66
2021/05/05 00:47:11;;;;;;;2.70;0.85;;;7.40;42.90;;;;;;5084555;28;20130;-66
2021/05/05 00:49:59;;;;;;;3.33;0.73;;;7.40;43.30;;;;;;5082546;28;20082;-66
2021/05/05 00:52:47;;;;;;;4.00;1.13;;;7.30;41.20;;;;;;5072287;28;20495;-67
2021/05/05 00:55:35;;;;;;;5.03;1.10;;;7.30;42.30;;;;;;5079573;28;20051;-67
2021/05/05 00:58:23;;;;;;;2.63;0.80;;;7.40;45.20;;;;;;5080424;28;20044;-66
2021/05/05 01:01:11;;;;;;;3.15;1.20;;;7.30;45.20;;;;;;5083570;28;20044;-65
2021/05/05 01:03:58;;;;;;;3.38;1.20;;;7.30;44.70;;;;;;5078344;28;20523;-66
2021/05/05 01:06:46;;;;;;;4.88;1.10;;;7.30;44.50;;;;;;5082164;28;20582;-65
2021/05/05 01:09:34;;;;;;;5.03;2.00;;;7.20;44.00;;;;;;5079967;28;20044;-66
2021/05/05 01:12:21;;;;;;;1.52;0.93;;;7.30;45.10;;;;;;5079330;28;21030;-66
2021/05/05 01:15:10;;;;;;;1.95;1.00;;;7.30;45.20;;;;;;5082752;28;20051;-66
2021/05/05 01:17:57;;;;;;;4.00;1.42;;;7.10;42.80;;;;;;5083672;28;20048;-66
2021/05/05 01:20:45;;;;;;;3.72;1.27;;;7.30;45.80;;;;;;5081320;28;20052;-66
2021/05/05 01:23:33;;;;;;;2.42;0.82;;;7.20;44.00;;;;;;5064914;28;20063;-65
2021/05/05 01:26:20;;;;;;;4.13;1.25;;;7.20;44.00;;;;;;5083055;28;20048;-66
2021/05/05 01:29:09;;;;;;;3.35;1.27;;;7.20;42.40;;;;;;5085736;28;20043;-67
2021/05/05 01:31:57;;;;;;;3.10;1.30;;;7.20;43.40;;;;;;5077654;28;20040;-66
2021/05/05 01:34:44;;;;;;;5.35;1.30;;;7.20;44.00;;;;;;5079694;28;20048;-65
2021/05/05 01:37:32;;;;;;;3.58;1.20;;;7.40;45.30;;;;;;5077636;28;20040;-66
2021/05/05 01:40:24;;;;;;;7.10;1.58;;;7.30;44.10;;;;;;5085377;28;20044;-64
2021/05/05 01:43:12;;;;;;;1.95;1.08;;;7.30;43.20;;;;;;5074596;28;20040;-66
2021/05/05 01:45:59;;;;;;;3.17;1.25;;;7.30;43.20;;;;;;5078723;28;20051;-65
2021/05/05 01:48:47;;;;;;;4.47;1.20;;;7.40;43.10;;;;;;5080196;28;20060;-66
2021/05/05 01:51:34;;;;;;;6.10;1.00;;;7.30;42.60;;;;;;5081440;28;20051;-67
2021/05/05 01:54:22;;;;;;;4.38;1.23;;;7.30;43.80;;;;;;5078358;28;20044;-65
2021/05/05 01:57:36;;;;;;;4.25;1.00;;;7.30;45.10;;;;;;5079644;28;20081;-66
2021/05/05 02:00:27;;;;;;;4.50;1.05;;;7.30;44.50;;;;;;5080317;28;20032;-66
2021/05/05 02:03:14;;;;;;;5.80;1.10;;;7.30;46.00;;;;;;5074860;28;20036;-66
2021/05/05 02:06:01;;;;;;;3.47;1.23;;;7.30;44.60;;;;;;5083786;28;20040;-65
2021/05/05 02:08:48;;;;;;;6.22;1.60;;;7.30;44.10;;;;;;5082270;28;20060;-65
2021/05/05 02:11:36;;;;;;;4.65;1.15;;;7.30;42.00;;;;;;5078732;28;20149;-65
2021/05/05 02:14:24;;;;;;;5.45;1.67;;;7.30;40.00;;;;;;5074720;28;20065;-66
2021/05/05 02:17:11;;;;;;;2.90;1.50;;;7.40;43.00;;;;;;5083307;28;20070;-66
2021/05/05 02:19:59;;;;;;;3.75;1.10;;;7.30;41.00;;;;;;5084766;28;20416;-65
2021/05/05 02:22:47;;;;;;;2.95;1.00;;;7.30;41.50;;;;;;5076152;28;20091;-66
2021/05/05 02:25:35;;;;;;;2.63;1.13;;;7.40;44.70;;;;;;5078135;28;20048;-65
2021/05/05 02:28:22;;;;;;;1.58;1.08;;;7.30;45.80;;;;;;5082686;28;20058;-68
2021/05/05 02:31:10;;;;;;;3.30;1.02;;;7.30;44.10;;;;;;5084853;28;20048;-66
2021/05/05 02:33:57;;;;;;;2.20;1.00;;;7.30;42.90;;;;;;5076555;28;20040;-66
2021/05/05 02:36:45;;;;;;;3.30;1.00;;;7.20;43.40;;;;;;5080550;28;20043;-65
2021/05/05 02:39:38;;;;;;;1.33;0.90;;;7.20;42.90;;;;;;5082000;28;20420;-65
2021/05/05 02:42:26;;;;;;;2.53;0.98;;;7.20;44.00;;;;;;5078064;28;20071;-66
2021/05/05 02:45:13;;;;;;;2.83;0.98;;;7.20;44.00;;;;;;5085457;28;20097;-66
2021/05/05 02:48:01;;;;;;;2.17;0.80;;;7.20;43.60;;;;;;5079284;28;20044;-65
2021/05/05 02:50:49;;;;;;;3.25;0.95;;;7.20;41.60;;;;;;5079879;28;20077;-66
2021/05/05 02:53:36;;;;;;;5.03;1.20;;;7.20;42.70;;;;;;5077086;28;20048;-66
2021/05/05 02:56:23;;;;;;;2.78;2.30;;;7.30;44.10;;;;;;5084482;28;20070;-65
2021/05/05 02:59:10;;;;;;;2.50;1.15;;;7.30;41.70;;;;;;5081675;28;20567;-65
2021/05/05 03:01:57;;;;;;;2.72;1.40;;;7.20;40.60;;;;;;5073900;28;21579;-66
2021/05/05 03:04:45;;;;;;;1.70;0.90;;;7.20;44.00;;;;;;5077365;28;20052;-66
2021/05/05 03:07:33;;;;;;;3.78;1.25;;;7.20;45.90;;;;;;5082679;28;20054;-66
2021/05/05 03:10:20;;;;;;;1.77;0.88;;;7.20;47.00;;;;;;5082915;28;20044;-67
2021/05/05 03:13:07;;;;;;;3.80;1.20;;;7.20;47.20;;;;;;5072704;28;20036;-67
2021/05/05 03:15:55;;;;;;;3.55;1.10;;;7.10;46.50;;;;;;5078132;28;20040;-65
2021/05/05 03:18:42;;;;;;;2.80;1.15;;;7.10;46.80;;;;;;5081706;28;20501;-67
2021/05/05 03:21:30;;;;;;;3.63;1.48;;;7.10;47.90;;;;;;5084475;28;20085;-65
2021/05/05 03:24:17;;;;;;;3.38;1.40;;;7.00;46.90;;;;;;5075952;28;20093;-66
2021/05/05 03:27:05;;;;;;;3.67;1.38;;;7.10;48.70;;;;;;5078415;28;20381;-66
2021/05/05 03:29:52;;;;;;;4.88;1.45;;;7.20;50.20;;;;;;5081139;28;20040;-66
2021/05/05 03:32:40;;;;;;;5.60;1.40;;;7.10;49.20;;;;;;5074653;28;20455;-64
2021/05/05 03:35:27;;;;;;;1.48;0.90;;;7.10;49.90;;;;;;5055001;28;20048;-66
2021/05/05 03:38:16;;;;;;;4.15;1.23;;;7.10;49.70;;;;;;5048126;28;20409;-67
2021/05/05 03:41:03;;;;;;;4.85;1.40;;;7.10;50.60;;;;;;5061356;28;20456;-66
2021/05/05 03:43:51;;;;;;;3.40;1.45;;;7.00;50.20;;;;;;5048681;28;20090;-66
2021/05/05 03:46:38;;;;;;;3.78;1.15;;;7.10;51.00;;;;;;5056332;28;20052;-66
2021/05/05 03:49:25;;;;;;;3.25;1.63;;;7.10;50.80;;;;;;5060472;28;20102;-65
2021/05/05 03:52:12;;;;;;;1.65;0.95;;;7.00;48.80;;;;;;5046121;28;20790;-66
2021/05/05 03:55:00;;;;;;;5.18;1.30;;;7.00;49.90;;;;;;5057952;28;20353;-66
2021/05/05 03:57:48;;;;;;;2.63;1.65;;;7.00;48.70;;;;;;5054835;28;20656;-66
2021/05/05 04:00:35;;;;;;;2.80;1.60;;;7.00;47.90;;;;;;5055679;28;20489;-66
2021/05/05 04:03:22;;;;;;;5.78;1.60;;;6.90;46.30;;;;;;5051873;28;20041;-66
2021/05/05 04:06:09;;;;;;;5.60;1.70;;;7.00;46.80;;;;;;5057765;28;20052;-65
2021/05/05 04:08:56;;;;;;;7.07;1.98;;;6.90;43.80;;;;;;5050777;28;20044;-65
2021/05/05 04:11:45;;;;;;;7.10;2.20;;;7.00;43.20;;;;;;5063174;28;20053;-67
2021/05/05 04:14:32;;;;;;;3.83;1.88;;;7.10;44.50;;;;;;5048072;28;20113;-66
2021/05/05 04:17:37;;;;;;;5.13;1.92;;;7.10;45.60;;;;;;5059958;28;20830;-66
2021/05/05 04:20:42;;;;;;;2.58;1.60;;;7.00;43.90;;;;;;5061637;28;20051;-66
2021/05/05 04:23:48;;;;;;;3.38;1.63;;;7.10;44.30;;;;;;5057418;28;20041;-66
2021/05/05 04:26:38;;;;;;;3.67;1.45;;;7.00;45.10;;;;;;5055211;28;20052;-66
2021/05/05 04:29:27;;;;;;;2.92;1.25;;;7.00;44.00;;;;;;5058238;28;20477;-66
2021/05/05 04:32:14;;;;;;;4.43;1.52;;;6.90;44.60;;;;;;5053396;28;20131;-65
2021/05/05 04:35:01;;;;;;;2.75;1.30;;;7.00;43.60;;;;;;5056550;28;20049;-66
2021/05/05 04:37:48;;;;;;;2.95;1.85;;;6.90;43.80;;;;;;5061337;28;20044;-65
2021/05/05 04:40:36;;;;;;;4.03;1.38;;;7.00;43.80;;;;;;5067538;28;20055;-65
2021/05/05 04:43:23;;;;;;;4.85;1.85;;;7.00;41.60;;;;;;5057244;28;20045;-66
2021/05/05 04:46:11;;;;;;;5.35;2.50;;;7.00;42.40;;;;;;5064684;28;20050;-65
2021/05/05 04:48:58;;;;;;;3.05;1.58;;;7.10;42.20;;;;;;5060640;28;20056;-66
2021/05/05 04:51:45;;;;;;;1.77;1.15;;;7.00;41.70;;;;;;5062758;28;20052;-66
2021/05/05 04:54:32;;;;;;;3.38;1.20;;;7.10;41.80;;;;;;5062092;28;20601;-64
2021/05/05 04:57:20;;;;;;;2.63;1.50;;;7.10;41.40;;;;;;5059663;28;20046;-66
2021/05/05 05:00:08;;;;;;;3.38;1.17;;;7.10;40.20;;;;;;5063949;28;20051;-66
2021/05/05 05:02:56;;;;;;;2.05;1.20;;;7.10;39.80;;;;;;5053245;28;20040;-65
2021/05/05 05:05:44;;;;;;;2.10;0.90;;;7.20;41.10;;;;;;5062301;28;20126;-66
2021/05/05 05:08:31;;;;;;;2.80;1.20;;;7.10;39.20;;;;;;5062514;28;20044;-66
2021/05/05 05:11:18;;;;;;;4.80;1.17;;;7.20;41.70;;;;;;5063574;28;20046;-66
2021/05/05 05:14:05;;;;;;;2.25;1.20;;;7.20;42.20;;;;;;5058836;28;20049;-66
2021/05/05 05:16:52;;;;;;;1.98;0.80;;;7.20;42.50;;;;;;5062662;28;20071;-65
2021/05/05 05:19:40;;;;;;;1.77;0.90;;;7.10;39.10;;;;;;5064435;28;20052;-65
2021/05/05 05:22:28;;;;;;;1.80;1.02;;;7.20;41.40;;;;;;5057439;28;20045;-66
2021/05/05 05:25:15;;;;;;;2.75;1.50;;;7.20;39.90;;;;;;5069147;28;20115;-66
2021/05/05 05:28:02;;;;;;;2.08;1.17;;;7.20;39.30;;;;;;5068766;28;20182;-66
2021/05/05 05:30:50;;;;;;;4.45;1.10;;;7.30;35.80;;;;;;5060952;28;20293;-67
2021/05/05 05:33:37;;;;;;;3.53;1.20;;;7.30;35.80;;;;;;5057083;28;20094;-67
2021/05/05 05:36:26;;;;;;;8.15;1.63;;;7.30;35.50;;;;;;5065699;28;20037;-67
2021/05/05 05:39:13;;;;;;;3.03;1.15;;;7.40;35.80;;;;;;5063032;28;20049;-66
2021/05/05 05:42:00;;;;;;;5.55;1.30;;;7.60;37.50;;;;;;5061193;28;20045;-67
2021/05/05 05:44:47;;;;;;;3.20;1.27;;;7.70;36.10;;;;;;5060933;28;20120;-66
2021/05/05 05:47:34;;;;;;;3.72;1.50;;;7.70;36.60;;;;;;5059373;28;20060;-67
2021/05/05 05:50:22;;;;;;;2.50;1.30;;;7.70;36.80;;;;;;5060342;28;20161;-67
2021/05/05 05:53:10;;;;;;;4.35;1.27;;;7.70;37.40;;;;;;5056962;28;20131;-67
2021/05/05 05:55:57;;;;;;;5.10;2.13;;;7.80;36.20;;;;;;5063169;28;20057;-67
2021/05/05 05:58:44;;;;;;;4.70;1.80;;;7.80;31.90;;;;;;5064782;28;20501;-67
2021/05/05 06:01:32;;;;;;;3.28;2.00;;;7.80;30.80;;;;;;5080324;28;20040;-67
2021/05/05 06:04:19;;;;;;;2.58;1.63;;;7.90;32.00;;;;;;5074229;28;20539;-67
2021/05/05 06:07:06;;;;;;;2.88;1.63;;;8.00;31.10;;;;;;5080438;28;20511;-66
2021/05/05 06:09:54;;;;;;;8.68;2.13;;;7.80;28.40;;;;;;5067640;28;20052;-66
2021/05/05 06:12:42;;;;;;;4.35;2.28;;;7.70;24.80;;;;;;5077438;28;20104;-66
2021/05/05 06:15:29;;;;;;;7.38;1.52;;;7.70;25.60;;;;;;5081976;28;20280;-66
2021/05/05 06:18:16;;;;;;;5.72;1.77;;;7.80;24.30;;;;;;5080113;28;20043;-66
2021/05/05 06:21:04;;;;;;;4.15;1.52;;;7.80;23.00;;;;;;5083434;28;20048;-66
2021/05/05 06:23:51;;;;;;;3.90;2.15;;;8.40;23.20;;;;;;5076605;28;20144;-67
2021/05/05 06:26:39;;;;;;;4.03;1.77;;;8.20;20.70;;;;;;5084088;28;20088;-67
2021/05/05 06:29:26;;;;;;;6.80;1.90;;;9.10;20.00;;;;;;5079635;28;20044;-67
2021/05/05 06:32:14;;;;;;;6.25;1.88;;;9.00;15.60;;;;;;5078826;28;20468;-66
2021/05/05 06:35:02;;;;;;;4.15;1.98;;;9.10;14.50;;;;;;5080417;28;20247;-67
2021/05/05 06:37:49;;;;;;;3.95;1.42;;;9.10;14.90;;;;;;5081655;28;20055;-66
2021/05/05 06:40:37;;;;;;;6.95;1.85;;;8.80;15.00;;;;;;5084899;28;20318;-66
2021/05/05 06:43:25;;;;;;;6.60;1.70;;;8.80;17.40;;;;;;5073618;28;20040;-68
2021/05/05 06:46:12;;;;;;;5.13;2.15;;;8.80;13.50;;;;;;5081317;28;20054;-66
2021/05/05 06:49:00;;;;;;;4.47;1.58;;;9.00;12.10;;;;;;5076433;28;20037;-67
2021/05/05 06:51:48;;;;;;;3.92;1.80;;;8.90;11.50;;;;;;5081337;28;20044;-66
2021/05/05 06:54:35;;;;;;;9.95;1.95;;;8.70;11.70;;;;;;5079337;28;20189;-67
2021/05/05 06:57:22;;;;;;;5.80;1.77;;;8.60;11.20;;;;;;5080568;28;20457;-68
2021/05/05 07:00:11;;;;;;;5.03;2.00;;;8.60;8.60;;;;;;5081907;28;20048;-67
2021/05/05 07:02:58;;;;;;;6.57;1.77;;;8.70;10.80;;;;;;5069949;28;20041;-66
2021/05/05 07:05:50;;;;;;;6.45;2.00;;;8.80;8.90;;;;;;5079528;28;20047;-67
2021/05/05 07:08:37;;;;;;;25.23;13.32;;;9.00;7.30;;;;;;5082737;28;20040;-67
2021/05/05 07:11:24;;;;;;;6.68;1.80;;;9.40;6.50;;;;;;5081028;28;20557;-66
2021/05/05 07:14:11;;;;;;;4.38;2.13;;;9.30;1.90;;;;;;5072430;28;20041;-67
2021/05/05 07:16:59;;;;;;;6.47;1.48;;;9.80;1.00;;;;;;5080981;28;20041;-67
2021/05/05 07:19:49;;;;;;;3.22;1.70;;;9.30;1.00;;;;;;5080342;28;20107;-66
2021/05/05 07:22:36;;;;;;;4.72;1.58;;;9.30;1.00;;;;;;5075935;28;20055;-67
2021/05/05 07:25:24;;;;;;;5.60;1.48;;;9.30;1.00;;;;;;5079782;28;20067;-66
2021/05/05 07:28:11;;;;;;;8.13;2.17;;;9.30;1.00;;;;;;5079198;28;20040;-67
2021/05/05 07:30:59;;;;;;;5.72;1.90;;;9.10;1.00;;;;;;5082931;28;20048;-67
2021/05/05 07:33:50;;;;;;;5.45;1.55;;;9.20;1.00;;;;;;5075236;28;20037;-67
2021/05/05 07:36:37;;;;;;;8.93;1.80;;;8.70;1.00;;;;;;5081334;28;20500;-67
2021/05/05 07:39:52;;;;;;;11.65;1.70;;;9.10;1.00;;;;;;5077304;28;20056;-66
2021/05/05 07:46:01;;;;;;;3.33;1.48;;;9.00;1.00;;;;;;5057260;28;20401;-67
2021/05/05 07:48:52;;;;;;;5.20;1.55;;;9.40;1.00;;;;;;5062631;28;20496;-67
2021/05/05 07:51:39;;;;;;;6.70;1.50;;;9.40;1.00;;;;;;5060639;28;20044;-67
2021/05/05 07:54:26;;;;;;;5.97;2.22;;;9.20;1.00;;;;;;5047758;28;20045;-66
2021/05/05 07:57:13;;;;;;;4.15;1.88;;;9.10;1.00;;;;;;5062434;28;20153;-66
2021/05/05 07:59:59;;;;;;;3.97;1.45;;;8.70;1.00;;;;;;5059954;28;20053;-66
2021/05/05 08:02:47;;;;;;;15.82;2.00;;;8.70;1.00;;;;;;5058643;28;20052;-67
2021/05/05 08:05:35;;;;;;;7.22;1.70;;;9.00;1.00;;;;;;5064341;28;20048;-66
2021/05/05 08:08:22;;;;;;;4.45;1.30;;;9.50;1.00;;;;;;5062328;28;20047;-66
2021/05/05 08:11:10;;;;;;;2.70;1.20;;;9.10;1.00;;;;;;5064525;28;20074;-67
2021/05/05 08:13:57;;;;;;;6.28;1.40;;;9.40;1.00;;;;;;5057595;28;20369;-66
2021/05/05 08:16:44;;;;;;;9.63;2.55;;;9.80;1.00;;;;;;5065082;28;20049;-66
2021/05/05 08:19:32;;;;;;;4.25;1.60;;;9.70;1.00;;;;;;5048216;28;20041;-65
2021/05/05 08:22:20;;;;;;;5.72;1.45;;;9.70;1.00;;;;;;5062293;28;20451;-66
2021/05/05 08:25:08;;;;;;;8.70;1.73;;;9.70;1.00;;;;;;5058206;28;20557;-66
2021/05/05 08:27:56;;;;;;;5.80;1.45;;;9.80;1.00;;;;;;5061841;28;20129;-66
2021/05/05 08:30:43;;;;;;;7.18;1.83;;;10.00;1.00;;;;;;5063727;28;20523;-66
2021/05/05 08:33:31;;;;;;;5.70;1.65;;;10.00;1.00;;;;;;5040062;28;20046;-66
2021/05/05 08:36:18;;;;;;;3.42;1.20;;;10.40;1.00;;;;;;5055436;28;20040;-67
2021/05/05 08:39:06;;;;;;;7.60;1.60;;;9.90;1.00;;;;;;5058969;28;20073;-66
2021/05/05 08:41:54;;;;;;;5.32;1.30;;;10.10;1.00;;;;;;5060289;28;20048;-66
2021/05/05 08:44:44;;;;;;;3.65;1.30;;;10.60;1.00;;;;;;5051182;28;20064;-66
2021/05/05 08:47:32;;;;;;;6.25;1.40;;;10.60;1.00;;;;;;5061293;28;20068;-66
2021/05/05 08:50:21;;;;;;;4.75;1.20;;;11.10;1.00;;;;;;5058957;28;20064;-66
2021/05/05 08:53:09;;;;;;;4.97;1.45;;;10.90;1.00;;;;;;5054049;28;20051;-67
2021/05/05 08:55:57;;;;;;;4.78;1.10;;;11.00;1.00;;;;;;5056731;28;20049;-64
2021/05/05 08:58:44;;;;;;;2.70;1.42;;;10.50;1.00;;;;;;5062234;28;20037;-66
2021/05/05 09:01:32;;;;;;;5.85;1.77;;;10.40;1.00;;;;;;5055492;28;20041;-65
2021/05/05 09:04:19;;;;;;;5.00;1.70;;;10.40;1.00;;;;;;5054494;28;20044;-66
2021/05/05 09:07:06;;;;;;;4.68;1.08;;;11.00;1.00;;;;;;5062642;28;20048;-66
2021/05/05 09:09:54;;;;;;;2.55;1.00;;;11.30;1.00;;;;;;5060581;28;20063;-65
2021/05/05 09:12:43;;;;;;;4.55;1.05;;;11.30;1.00;;;;;;5057403;28;20131;-66
2021/05/05 09:16:06;;;;;;;4.65;1.33;;;11.40;1.00;;;;;;5056465;28;20044;-66
2021/05/05 09:18:56;;;;;;;3.97;1.27;;;11.50;1.00;;;;;;5068191;28;20056;-66
2021/05/05 09:21:45;;;;;;;8.68;2.10;;;11.50;1.00;;;;;;5061706;28;20500;-66
2021/05/05 09:24:34;;;;;;;3.75;1.67;;;11.60;1.00;;;;;;5057491;28;20124;-66
2021/05/05 09:27:21;;;;;;;3.95;1.20;;;10.90;1.00;;;;;;5061411;28;20068;-65
2021/05/05 09:30:22;;;;;;;5.75;1.60;;;11.30;1.00;;;;;;5063323;28;20051;-66
2021/05/05 09:33:09;;;;;;;2.80;1.35;;;11.40;1.00;;;;;;5059530;28;20049;-67
2021/05/05 09:35:58;;;;;;;5.75;1.38;;;11.40;1.00;;;;;;5064299;28;20044;-65
2021/05/05 09:38:49;;;;;;;2.85;1.33;;;10.50;1.00;;;;;;5057589;28;20171;-66
2021/05/05 09:41:42;;;;;;;5.88;2.30;;;11.60;1.00;;;;;;5058294;28;20048;-67
2021/05/05 09:44:30;;;;;;;5.65;1.33;;;11.30;1.00;;;;;;5059699;28;20067;-66
2021/05/05 09:47:18;;;;;;;5.82;1.33;;;11.50;1.00;;;;;;5063800;28;20159;-66
2021/05/05 09:50:08;;;;;;;4.05;1.20;;;11.00;1.00;;;;;;5063684;28;20040;-66
2021/05/05 09:53:17;;;;;;;3.13;1.33;;;11.70;1.00;;;;;;5052928;28;20140;-66
2021/05/05 09:56:09;;;;;;;5.32;1.52;;;11.70;1.00;;;;;;5060462;28;20036;-66
2021/05/05 09:59:00;;;;;;;2.95;0.95;;;11.80;1.00;;;;;;5051851;28;20070;-66
2021/05/05 10:02:00;;;;;;;5.38;1.15;;;11.90;1.00;;;;;;5055715;28;20048;-65
2021/05/05 10:04:58;;;;;;;2.92;1.10;;;11.80;1.00;;;;;;5056994;28;20537;-66
2021/05/05 10:07:56;;;;;;;3.00;1.35;;;11.90;1.00;;;;;;5059610;28;20049;-67
2021/05/05 10:10:44;;;;;;;4.78;1.38;;;12.20;1.00;;;;;;5062589;28;20044;-65
2021/05/05 10:13:31;;;;;;;2.30;1.05;;;12.50;1.00;;;;;;5057153;28;20458;-67
2021/05/05 10:16:19;;;;;;;6.90;1.95;;;13.00;1.00;;;;;;5061627;28;20067;-65
2021/05/05 10:19:08;;;;;;;3.00;1.30;;;12.60;1.00;;;;;;5061017;28;20040;-69
2021/05/05 10:22:02;;;;;;;3.85;1.20;;;11.90;1.00;;;;;;5055610;28;20048;-67
2021/05/05 10:24:50;;;;;;;3.65;1.15;;;12.10;1.00;;;;;;5057914;28;20125;-67
2021/05/05 10:27:38;;;;;;;4.32;1.45;;;12.40;1.00;;;;;;5057629;28;20128;-66
2021/05/05 10:30:28;;;;;;;6.40;1.55;;;11.50;1.00;;;;;;5062350;28;20119;-66
2021/05/05 10:33:37;;;;;;;3.42;1.38;;;11.00;1.00;;;;;;5054546;28;20045;-65
2021/05/05 10:36:36;;;;;;;4.65;1.30;;;11.70;1.00;;;;;;5061350;28;20135;-66
2021/05/05 10:39:37;;;;;;;4.50;1.70;;;11.90;1.00;;;;;;5059596;28;20037;-66
2021/05/05 10:42:26;;;;;;;3.75;0.77;;;11.40;1.00;;;;;;5059483;28;20040;-66
2021/05/05 10:45:29;;;;;;;2.17;0.50;;;8.80;1.00;;;;;;5066551;28;20047;-65
2021/05/05 10:48:19;;;;;;;0.90;0.57;;;6.40;10.10;;;;;;5064219;28;20097;-64
2021/05/05 10:51:06;;;;;;;3.30;0.65;;;5.90;30.40;;;;;;5061692;28;20044;-63
2021/05/05 10:53:54;;;;;;;0.85;0.52;;;5.40;50.60;;;;;;5050158;28;20060;-62
2021/05/05 10:56:44;;;;;;;1.38;0.90;;;4.70;33.60;;;;;;5065962;28;20057;-63
2021/05/05 11:00:09;;;;;;;3.35;1.15;;;4.70;35.90;;;;;;5061040;28;20058;-63
2021/05/05 11:03:01;;;;;;;2.63;1.10;;;4.80;36.80;;;;;;5052212;28;20063;-63
2021/05/05 11:05:48;;;;;;;2.20;1.45;;;5.10;32.90;;;;;;5048210;28;20517;-64
2021/05/05 11:08:35;;;;;;;2.97;1.30;;;5.60;35.20;;;;;;5050855;28;20651;-64
2021/05/05 11:11:34;;;;;;;4.28;1.42;;;5.50;35.30;;;;;;5081416;28;20103;-65
2021/05/05 11:14:46;;;;;;;2.00;1.08;;;5.90;29.60;;;;;;5077941;28;20661;-64
2021/05/05 11:17:33;;;;;;;3.85;1.20;;;5.70;32.80;;;;;;5073253;28;20085;-63
2021/05/05 11:20:39;;;;;;;2.90;1.00;;;6.30;28.00;;;;;;5081400;28;20048;-65
2021/05/05 11:23:45;;;;;;;;;;;6.50;25.20;;;;;;5073577;28;20589;-65
2021/05/05 11:26:33;;;;;;;1.63;1.23;;;6.90;24.80;;;;;;5081264;28;19920;-64
2021/05/05 11:29:33;;;;;;;4.85;1.33;;;7.20;21.00;;;;;;5083101;28;20048;-66
2021/05/05 11:32:27;;;;;;;3.45;1.08;;;7.60;17.80;;;;;;5079571;28;20044;-66
2021/05/05 11:35:26;;;;;;;1.98;0.88;;;7.60;13.20;;;;;;5082208;28;20036;-64
2021/05/05 11:38:20;;;;;;;3.45;1.25;;;8.10;12.40;;;;;;5083663;28;20044;-64
2021/05/05 11:41:08;;;;;;;2.20;1.00;;;8.50;12.50;;;;;;5082940;28;20040;-65
2021/05/05 11:43:56;;;;;;;3.22;1.52;;;8.80;7.80;;;;;;5082004;28;20088;-65
2021/05/05 11:46:57;;;;;;;2.45;1.20;;;9.00;7.90;;;;;;5086743;28;20385;-63
2021/05/05 11:49:48;;;;;;;3.17;1.20;;;9.00;4.10;;;;;;5067297;28;20048;-64
2021/05/05 11:52:37;;;;;;;3.85;1.77;;;8.90;1.50;;;;;;5054371;28;20174;-65
2021/05/05 11:55:27;;;;;;;4.43;1.27;;;9.50;3.70;;;;;;5063012;28;20115;-65
2021/05/05 11:58:22;;;;;;;2.03;1.15;;;10.00;1.00;;;;;;5071008;28;20127;-64
2021/05/05 12:01:09;;;;;;;9.20;1.65;;;10.10;1.00;;;;;;5062358;28;20099;-65
2021/05/05 12:04:13;;;;;;;3.25;1.20;;;10.20;1.00;;;;;;5061353;28;20056;-65
2021/05/05 12:07:02;;;;;;;1.90;1.20;;;10.40;1.00;;;;;;5065113;28;20052;-65
2021/05/05 12:09:50;;;;;;;3.47;1.33;;;10.30;1.00;;;;;;5063203;28;20433;-66
2021/05/05 12:12:38;;;;;;;4.32;1.60;;;10.30;1.00;;;;;;5059819;28;20139;-64
2021/05/05 12:15:32;;;;;;;3.97;1.40;;;10.50;1.00;;;;;;5065087;28;20496;-65
2021/05/05 12:18:25;;;;;;;2.38;1.30;;;10.40;1.00;;;;;;5064122;28;20072;-64
2021/05/05 12:21:13;;;;;;;5.82;1.42;;;10.80;1.00;;;;;;5058532;28;20052;-64
2021/05/05 12:24:02;;;;;;;4.20;1.20;;;11.60;1.00;;;;;;5055775;28;20514;-64
2021/05/05 12:26:49;;;;;;;4.93;1.30;;;11.30;1.00;;;;;;5066780;28;20135;-65
2021/05/05 12:29:37;;;;;;;3.95;1.00;;;11.40;1.00;;;;;;5062828;28;20044;-65
2021/05/05 12:32:24;;;;;;;4.95;1.30;;;10.80;1.00;;;;;;5060176;28;20117;-64
2021/05/05 12:35:19;;;;;;;3.47;1.00;;;11.00;1.00;;;;;;5062489;28;20119;-64
2021/05/05 12:38:09;;;;;;;3.45;1.20;;;11.10;1.00;;;;;;5078994;28;20531;-65
2021/05/05 12:41:03;;;;;;;3.28;1.08;;;11.20;1.00;;;;;;5084243;28;20137;-64
2021/05/05 12:43:52;;;;;;;11.45;4.85;;;10.70;1.00;;;;;;5078173;28;20175;-64
2021/05/05 12:46:55;;;;;;;2.97;1.08;;;10.40;1.00;;;;;;5083648;28;20048;-66
2021/05/05 12:49:44;;;;;;;2.25;0.93;;;10.10;1.00;;;;;;5085358;28;20043;-64
2021/05/05 12:52:58;;;;;;;1.55;0.80;;;10.20;1.00;;;;;;5076120;28;20131;-65
2021/05/05 12:55:56;;;;;;;3.55;1.25;;;10.30;1.00;;;;;;5083586;28;20044;-65
2021/05/05 12:58:47;;;;;;;1.80;0.93;;;9.40;1.00;;;;;;5064922;28;20071;-64
2021/05/05 13:01:34;;;;;;;3.67;0.90;;;7.90;3.50;;;;;;5082151;28;20047;-64
2021/05/05 13:04:34;;;;;;;1.42;0.90;;;7.60;7.10;;;;;;5078328;28;20044;-65
2021/05/05 13:07:28;;;;;;;2.63;1.10;;;7.30;11.70;;;;;;5080768;28;20055;-65
2021/05/05 13:10:19;;;;;;;2.78;1.58;;;7.80;15.40;;;;;;5085396;28;20473;-64
2021/05/05 13:13:07;;;;;;;3.00;1.48;;;7.60;12.00;;;;;;5078020;28;20130;-66
2021/05/05 13:16:13;;;;;;;4.72;1.58;;;8.20;13.50;;;;;;5079713;28;20076;-65
2021/05/05 13:32:01;;;;;;;3.03;1.65;;;9.80;1.00;;;;;;5083129;28;20495;-65
2021/05/05 13:34:49;;;;;;;3.50;1.80;;;10.00;1.00;;;;;;5078850;28;20089;-64
2021/05/05 13:37:36;;;;;;;4.95;1.80;;;10.00;1.00;;;;;;5080087;28;20039;-65
2021/05/05 13:40:23;;;;;;;3.72;1.70;;;9.90;1.00;;;;;;5080998;28;20043;-65
2021/05/05 13:43:22;;;;;;;3.42;1.40;;;9.70;1.00;;;;;;5070555;28;20496;-64
2021/05/05 13:46:17;;;;;;;2.30;1.60;;;9.40;1.00;;;;;;5083118;28;20078;-65
2021/05/05 13:49:09;;;;;;;;;;;9.30;1.00;;;;;;5080446;28;20043;-63
2021/05/05 13:51:59;;;;;;;2.35;0.80;;;7.90;1.00;;;;;;5074344;28;19931;-65
2021/05/05 13:54:46;;;;;;;1.67;0.70;;;7.40;1.00;;;;;;5062862;28;20045;-65
2021/05/05 13:57:36;;;;;;;4.63;1.30;;;7.10;3.30;;;;;;5085355;28;20106;-65
2021/05/05 14:00:24;;;;;;;3.65;1.30;;;7.00;8.20;;;;;;5077749;28;20066;-66
2021/05/05 14:03:11;;;;;;;4.88;2.38;;;7.00;12.90;;;;;;5077326;28;20040;-65
2021/05/05 14:06:00;;;;;;;3.17;2.20;;;7.00;14.10;;;;;;5077862;28;20416;-65
2021/05/05 14:08:47;;;;;;;2.22;1.20;;;7.00;12.30;;;;;;5080437;28;20170;-65
2021/05/05 14:11:34;;;;;;;2.63;1.40;;;7.20;10.30;;;;;;5080729;28;20366;-64
2021/05/05 14:14:22;;;;;;;3.47;1.88;;;7.40;10.50;;;;;;5078285;28;20043;-64
2021/05/05 14:17:10;;;;;;;2.60;1.30;;;8.10;6.50;;;;;;5080758;28;20044;-63
2021/05/05 14:19:58;;;;;;;2.28;1.35;;;8.10;5.60;;;;;;5082349;28;20063;-65
2021/05/05 14:22:47;;;;;;;4.85;1.80;;;8.30;8.00;;;;;;5070174;28;20062;-65
2021/05/05 14:25:34;;;;;;;2.78;1.33;;;8.70;6.80;;;;;;5079707;28;20044;-63
2021/05/05 14:28:21;;;;;;;2.72;1.73;;;8.80;4.10;;;;;;5080176;28;20367;-66
2021/05/05 14:31:10;;;;;;;4.30;1.70;;;8.80;6.30;;;;;;5074458;28;20130;-64
2021/05/05 14:33:57;;;;;;;6.97;1.50;;;9.20;7.50;;;;;;5072402;28;20040;-63
2021/05/05 14:36:44;;;;;;;2.95;1.30;;;9.30;2.90;;;;;;5081908;28;20336;-65
2021/05/05 14:39:32;;;;;;;3.53;1.45;;;9.20;4.30;;;;;;5079739;28;20039;-64
2021/05/05 14:42:24;;;;;;;2.67;1.40;;;9.40;1.00;;;;;;5076644;28;20134;-63
2021/05/05 14:45:26;;;;;;;2.90;1.38;;;9.70;1.30;;;;;;5075914;28;20029;-64
2021/05/05 14:48:16;;;;;;;3.78;1.38;;;9.80;1.00;;;;;;5079885;28;20435;-64
2021/05/05 14:51:04;;;;;;;2.97;1.58;;;10.00;1.00;;;;;;5080123;28;20202;-63
2021/05/05 14:53:52;;;;;;;1.27;1.08;;;10.30;1.00;;;;;;5075073;28;20078;-61
2021/05/05 14:56:40;;;;;;;2.78;1.08;;;10.30;1.00;;;;;;5073431;28;20044;-64
2021/05/05 14:59:27;;;;;;;2.25;1.15;;;10.40;1.00;;;;;;5077294;28;20489;-63
2021/05/05 15:02:14;;;;;;;3.08;1.42;;;10.60;1.00;;;;;;5079740;28;20128;-64
2021/05/05 15:05:02;;;;;;;2.85;1.00;;;10.90;1.00;;;;;;5080458;28;20384;-64
2021/05/05 15:07:52;;;;;;;1.50;1.08;;;11.00;1.00;;;;;;5072730;28;20048;-64
2021/05/05 15:10:54;;;;;;;1.55;1.00;;;11.10;1.00;;;;;;5079401;28;20107;-65
2021/05/05 15:13:48;;;;;;;2.63;1.00;;;11.10;1.00;;;;;;5072072;28;20123;-63
2021/05/05 15:29:27;;;;;;;3.58;0.90;;;11.50;1.00;;;;;;5080640;28;20047;-64